Time;durP1;ratioP1;P1;durP2;ratioP2;P2;SDS_P1;SDS_P2;PMS_P1;PMS_P2;Temp;Humidity;BMP_temperature;BMP_pressure;BME280_temperature;BME280_humidity;BME280_pressure;Samples;Min_cycle;Max_cycle;Signal;HPM_P1;HPM_P2
2021/07/28 00:00:03;;;;;;;10.77;7.03;;;21.10;99.90;;;;;;11913364;28;20054;-64
2021/07/28 00:05:50;;;;;;;13.23;6.00;;;21.10;99.90;;;;;;11920046;28;20038;-64
2021/07/28 00:11:36;;;;;;;13.15;6.25;;;21.10;99.90;;;;;;11905052;28;20057;-65
2021/07/28 00:17:26;;;;;;;9.23;5.97;;;21.00;99.90;;;;;;11892213;28;20054;-64
2021/07/28 00:23:14;;;;;;;15.50;6.57;;;21.00;99.90;;;;;;11914373;28;20053;-64
2021/07/28 00:29:01;;;;;;;11.52;6.55;;;21.00;99.90;;;;;;11890260;28;20161;-65
2021/07/28 00:34:49;;;;;;;13.15;6.38;;;21.00;99.90;;;;;;11893211;28;20033;-64
2021/07/28 00:40:36;;;;;;;12.27;5.82;;;21.00;99.90;;;;;;11907298;28;20050;-64
2021/07/28 00:46:23;;;;;;;8.90;5.50;;;21.00;99.90;;;;;;11932736;28;20417;-64
2021/07/28 00:52:11;;;;;;;12.45;6.10;;;20.90;99.90;;;;;;11929891;28;20053;-64
2021/07/28 00:58:00;;;;;;;12.70;6.28;;;20.90;99.90;;;;;;11906080;28;20057;-64
2021/07/28 01:03:47;;;;;;;16.00;6.03;;;20.90;99.90;;;;;;11906570;28;20540;-64
2021/07/28 01:09:35;;;;;;;10.52;5.55;;;20.90;99.90;;;;;;11926600;28;20052;-64
2021/07/28 07:25:48;;;;;;;12.70;3.15;;;19.00;99.90;;;;;;11925260;27;20413;-64
2021/07/28 07:31:35;;;;;;;19.98;3.72;;;19.40;99.90;;;;;;11882824;28;20050;-63
2021/07/28 07:37:22;;;;;;;10.43;3.83;;;20.10;99.90;;;;;;11914225;28;20073;-65
2021/07/28 07:43:11;;;;;;;9.60;3.33;;;20.50;99.90;;;;;;11912166;28;20057;-63
2021/07/28 07:48:58;;;;;;;10.55;3.17;;;20.80;99.90;;;;;;11923328;28;20754;-64
2021/07/28 07:54:45;;;;;;;11.25;3.65;;;20.80;99.90;;;;;;11925322;28;20077;-64
2021/07/28 08:00:33;;;;;;;9.65;3.03;;;20.70;99.90;;;;;;11924530;28;20050;-64
2021/07/28 08:06:20;;;;;;;9.70;3.05;;;20.70;99.90;;;;;;11920562;28;20053;-64
2021/07/28 08:12:07;;;;;;;11.32;3.05;;;20.70;99.90;;;;;;11923148;28;20052;-64
2021/07/28 08:17:55;;;;;;;9.90;3.40;;;20.60;99.90;;;;;;11944464;28;20425;-63
2021/07/28 08:23:45;;;;;;;6.75;2.75;;;20.80;99.90;;;;;;11970219;28;20058;-63
2021/07/28 08:29:32;;;;;;;11.55;3.78;;;20.90;99.90;;;;;;11958268;28;20045;-63
2021/07/28 08:35:20;;;;;;;9.48;2.90;;;20.90;99.90;;;;;;11936271;28;20045;-63
2021/07/28 08:41:07;;;;;;;12.05;2.75;;;20.60;99.90;;;;;;11931490;28;20061;-62
2021/07/28 08:59:56;;;;;;;8.27;2.50;;;21.30;99.90;;;;;;11867744;28;20445;-62
2021/07/28 09:05:45;;;;;;;4.47;2.60;;;21.50;99.90;;;;;;11855654;28;20433;-60
2021/07/28 09:11:32;;;;;;;11.73;2.83;;;21.80;99.90;;;;;;11876076;28;20529;-61
2021/07/28 09:17:26;;;;;;;6.95;2.08;;;21.60;99.90;;;;;;11835707;28;20051;-61
2021/07/28 09:23:13;;;;;;;6.80;2.00;;;21.60;99.90;;;;;;11873034;28;20046;-62
2021/07/28 09:29:05;;;;;;;9.23;2.35;;;21.90;99.90;;;;;;11837214;28;20119;-61
2021/07/28 09:34:55;;;;;;;8.85;2.90;;;22.10;99.90;;;;;;11869369;28;20042;-61
2021/07/28 09:40:42;;;;;;;5.63;2.03;;;22.40;99.90;;;;;;11840340;28;20171;-61
2021/07/28 09:46:32;;;;;;;5.28;1.95;;;22.20;99.90;;;;;;11864053;28;20395;-61
2021/07/28 09:52:23;;;;;;;10.95;2.22;;;22.20;99.90;;;;;;11818866;28;20047;-61
2021/07/28 09:58:09;;;;;;;2.72;2.25;;;22.30;99.90;;;;;;11823713;28;20537;-62
2021/07/28 10:03:59;;;;;;;8.32;2.13;;;22.30;99.90;;;;;;11830737;28;20046;-61
2021/07/28 10:09:52;;;;;;;4.90;2.00;;;22.40;99.90;;;;;;11806828;28;20074;-61
2021/07/28 10:22:21;;;;;;;4.20;1.90;;;22.10;99.90;;;;;;11835205;28;20058;-60
2021/07/28 10:28:10;;;;;;;6.32;2.08;;;22.00;99.90;;;;;;11853340;28;20050;-59
2021/07/28 10:33:59;;;;;;;3.83;1.70;;;22.10;99.90;;;;;;11859383;28;20180;-60
2021/07/28 10:39:47;;;;;;;2.40;1.92;;;21.90;99.90;;;;;;11869013;28;20506;-63
2021/07/28 10:45:55;;;;;;;6.40;1.80;;;21.90;99.90;;;;;;11856621;28;20510;-60
2021/07/28 10:51:55;;;;;;;11.10;2.20;;;22.20;99.90;;;;;;11855167;28;20587;-60
2021/07/28 10:58:12;;;;;;;3.67;1.85;;;22.50;99.90;;;;;;11834248;28;20061;-60
2021/07/28 11:04:24;;;;;;;6.18;1.77;;;22.70;99.90;;;;;;11833161;28;20522;-61
2021/07/28 11:10:11;;;;;;;5.28;2.03;;;22.80;99.90;;;;;;11804569;28;20046;-60
2021/07/28 11:15:59;;;;;;;4.43;1.80;;;23.10;98.90;;;;;;11806019;28;20462;-60
2021/07/28 11:21:48;;;;;;;3.72;1.88;;;23.10;97.00;;;;;;11839461;28;20077;-60
2021/07/28 11:27:34;;;;;;;5.30;2.00;;;22.70;97.10;;;;;;11836784;28;20061;-59
2021/07/28 11:33:22;;;;;;;4.13;1.60;;;22.60;96.90;;;;;;11842108;28;20785;-59
2021/07/28 11:39:13;;;;;;;4.05;1.73;;;22.70;97.10;;;;;;11840324;28;20046;-61
2021/07/28 11:45:00;;;;;;;3.63;1.88;;;23.10;96.90;;;;;;11842134;28;20054;-62
2021/07/28 11:50:46;;;;;;;5.07;1.60;;;23.60;94.00;;;;;;11817083;28;20046;-63
2021/07/28 11:56:35;;;;;;;3.45;1.70;;;23.80;93.90;;;;;;11817053;28;20043;-63
2021/07/28 12:02:22;;;;;;;4.03;1.95;;;23.40;92.00;;;;;;11808176;28;20061;-63
2021/07/28 12:08:09;;;;;;;3.22;1.58;;;23.20;92.40;;;;;;11845833;28;20037;-62
2021/07/28 12:14:35;;;;;;;2.05;1.60;;;23.30;91.60;;;;;;11844387;28;20054;-62
2021/07/28 12:20:22;;;;;;;3.75;1.92;;;23.50;91.70;;;;;;11857963;28;20514;-63
2021/07/28 12:26:09;;;;;;;3.28;2.00;;;23.40;92.60;;;;;;11849713;28;20041;-63
2021/07/28 12:31:57;;;;;;;5.45;2.40;;;23.40;92.50;;;;;;11855562;28;20061;-63
2021/07/28 12:37:44;;;;;;;6.57;2.38;;;23.20;91.10;;;;;;11855853;28;20050;-62
2021/07/28 12:43:32;;;;;;;4.35;2.10;;;23.50;91.80;;;;;;11856740;28;20055;-62
2021/07/28 12:49:21;;;;;;;8.10;2.30;;;24.00;90.70;;;;;;11879161;28;20066;-62
2021/07/28 12:55:09;;;;;;;1.77;1.65;;;24.50;90.70;;;;;;11868573;28;20054;-62
2021/07/28 13:00:58;;;;;;;2.65;1.80;;;25.00;85.70;;;;;;11869693;28;20059;-62
2021/07/28 13:06:53;;;;;;;5.53;1.90;;;24.80;83.60;;;;;;11857199;28;20061;-62
2021/07/28 13:12:40;;;;;;;3.10;1.77;;;24.80;82.10;;;;;;11860858;28;20137;-63
2021/07/28 13:18:27;;;;;;;3.25;1.83;;;24.70;79.80;;;;;;11877851;28;20580;-62
2021/07/28 13:24:15;;;;;;;3.97;1.75;;;24.50;81.70;;;;;;11875895;28;20137;-62
2021/07/28 13:30:02;;;;;;;4.03;1.95;;;24.80;80.50;;;;;;11855292;28;20054;-62
2021/07/28 13:35:49;;;;;;;1.73;1.60;;;24.80;81.40;;;;;;11831645;28;20094;-63
2021/07/28 13:41:38;;;;;;;2.35;1.77;;;25.30;85.10;;;;;;11849916;28;20418;-62
2021/07/28 13:47:24;;;;;;;5.53;1.98;;;25.50;79.60;;;;;;11875366;28;20077;-62
2021/07/28 13:53:11;;;;;;;4.43;1.83;;;25.40;81.00;;;;;;11835924;28;20054;-62
2021/07/28 13:59:00;;;;;;;3.25;2.15;;;25.40;80.40;;;;;;11840730;28;20046;-62
2021/07/28 14:04:48;;;;;;;2.80;1.75;;;25.30;79.50;;;;;;11821064;28;20055;-62
2021/07/28 14:10:35;;;;;;;2.92;2.20;;;25.60;79.20;;;;;;11854882;28;20458;-62
2021/07/28 14:16:23;;;;;;;6.45;2.20;;;26.00;77.50;;;;;;11852440;28;20058;-63
2021/07/28 14:22:11;;;;;;;5.15;2.30;;;26.00;77.80;;;;;;11836397;28;20069;-63
2021/07/28 14:27:58;;;;;;;2.22;2.00;;;26.10;77.60;;;;;;11859913;28;20050;-63
2021/07/28 14:33:46;;;;;;;3.30;2.08;;;26.50;78.20;;;;;;11874671;28;20046;-63
2021/07/28 14:39:33;;;;;;;2.80;2.03;;;26.30;76.10;;;;;;11870667;28;20158;-65
2021/07/28 14:45:20;;;;;;;4.13;2.10;;;26.00;76.80;;;;;;11816580;28;20129;-63
2021/07/28 14:51:15;;;;;;;2.28;2.08;;;25.50;77.90;;;;;;11838738;28;20505;-64
2021/07/28 14:57:02;;;;;;;3.83;2.13;;;24.90;79.80;;;;;;11821019;28;20057;-63
2021/07/28 15:02:49;;;;;;;2.85;2.00;;;24.80;81.00;;;;;;11817684;28;20503;-64
2021/07/28 15:08:37;;;;;;;5.65;2.22;;;24.80;81.10;;;;;;11792496;28;20045;-64
2021/07/28 15:14:24;;;;;;;6.60;2.10;;;24.90;81.40;;;;;;11811642;28;20046;-63
2021/07/28 15:20:11;;;;;;;2.55;2.10;;;25.00;80.60;;;;;;11823431;28;20055;-62
2021/07/28 15:26:00;;;;;;;4.03;2.20;;;24.90;80.50;;;;;;11799468;28;20433;-63
2021/07/28 15:31:49;;;;;;;5.10;2.08;;;25.00;80.80;;;;;;11838026;28;20061;-63
2021/07/28 15:37:36;;;;;;;3.42;2.40;;;25.40;77.90;;;;;;11837510;28;20085;-62
2021/07/28 15:43:24;;;;;;;4.53;2.22;;;25.30;77.50;;;;;;11807394;28;20058;-63
2021/07/28 15:49:11;;;;;;;4.35;2.40;;;24.80;78.10;;;;;;11803655;28;20050;-64
2021/07/28 15:54:58;;;;;;;6.10;2.83;;;24.40;81.20;;;;;;11832742;28;20050;-64
2021/07/28 16:00:49;;;;;;;4.38;2.47;;;24.30;81.40;;;;;;11845765;28;20046;-64
2021/07/28 16:06:36;;;;;;;6.78;2.78;;;24.20;82.70;;;;;;11800087;28;20042;-64
2021/07/28 16:12:23;;;;;;;6.95;2.45;;;24.20;83.90;;;;;;11826151;28;20266;-64
2021/07/28 16:18:33;;;;;;;3.97;2.70;;;24.20;83.30;;;;;;11843786;28;20564;-64
2021/07/28 16:24:28;;;;;;;2.95;2.38;;;24.70;82.60;;;;;;11856183;28;20042;-64
2021/07/28 16:30:16;;;;;;;3.85;2.03;;;26.80;78.30;;;;;;11856562;28;20046;-63
2021/07/28 16:36:05;;;;;;;3.00;2.08;;;27.70;74.60;;;;;;11881810;28;20062;-62
2021/07/28 16:41:52;;;;;;;4.03;2.30;;;29.40;70.20;;;;;;11879483;28;20081;-63
2021/07/28 16:47:39;;;;;;;3.42;1.80;;;29.70;66.70;;;;;;11855843;28;20480;-64
2021/07/28 16:53:28;;;;;;;3.55;1.98;;;32.20;61.30;;;;;;11807875;28;20553;-64
2021/07/28 16:59:14;;;;;;;3.80;2.42;;;33.50;56.40;;;;;;11833104;28;20062;-65
2021/07/28 17:05:01;;;;;;;5.72;2.08;;;32.80;56.30;;;;;;11828916;28;20058;-65
2021/07/28 17:10:50;;;;;;;4.75;1.95;;;31.20;59.00;;;;;;11811302;28;20108;-64
2021/07/28 17:16:37;;;;;;;7.85;2.40;;;29.90;59.50;;;;;;11805153;28;20714;-65
2021/07/28 17:22:23;;;;;;;3.22;2.08;;;31.40;58.80;;;;;;11805707;28;20070;-65
2021/07/28 17:28:12;;;;;;;3.28;1.75;;;33.60;55.20;;;;;;11798860;28;20515;-65
2021/07/28 17:33:59;;;;;;;3.35;2.00;;;34.70;50.30;;;;;;11798620;28;20065;-65
2021/07/28 17:39:46;;;;;;;3.08;1.90;;;33.10;52.20;;;;;;11838162;28;20047;-66
2021/07/28 17:45:34;;;;;;;3.08;2.08;;;32.00;53.90;;;;;;11868687;28;20129;-62
2021/07/28 17:51:21;;;;;;;3.53;2.13;;;30.20;57.90;;;;;;11860972;28;20038;-63
2021/07/28 17:57:08;;;;;;;2.75;1.92;;;28.60;60.60;;;;;;11817953;28;20637;-64
2021/07/28 18:02:57;;;;;;;3.65;2.03;;;30.00;58.00;;;;;;11835264;28;20057;-64
2021/07/28 18:08:44;;;;;;;9.23;2.05;;;28.80;58.20;;;;;;11791475;28;20049;-64
2021/07/28 18:14:31;;;;;;;4.20;2.08;;;27.50;61.70;;;;;;11835936;28;20434;-64
2021/07/28 18:20:20;;;;;;;4.50;2.30;;;28.40;59.30;;;;;;11838832;28;20058;-64
2021/07/28 18:26:07;;;;;;;4.47;2.35;;;30.50;55.90;;;;;;11832887;28;20042;-64
2021/07/28 18:31:54;;;;;;;4.35;1.98;;;29.10;57.60;;;;;;11833209;28;20054;-64
2021/07/28 18:37:43;;;;;;;4.32;2.20;;;28.60;59.20;;;;;;11831032;28;20058;-65
2021/07/28 18:43:30;;;;;;;5.90;2.25;;;29.10;58.00;;;;;;11833479;28;20092;-64
2021/07/28 18:49:17;;;;;;;2.30;1.73;;;27.90;61.10;;;;;;11804546;28;20055;-64
2021/07/28 18:55:06;;;;;;;2.90;2.22;;;27.80;63.80;;;;;;11798785;28;20505;-64
2021/07/28 19:00:53;;;;;;;5.90;2.17;;;29.10;61.40;;;;;;11864203;28;20116;-63
2021/07/28 19:06:41;;;;;;;4.70;2.00;;;29.50;58.60;;;;;;11844986;28;20051;-64
2021/07/28 19:12:29;;;;;;;4.97;2.28;;;28.10;61.10;;;;;;11851602;28;20094;-63
2021/07/28 19:18:18;;;;;;;3.65;1.85;;;27.00;67.30;;;;;;11816377;28;20434;-63
2021/07/28 19:24:07;;;;;;;3.40;2.33;;;26.10;69.00;;;;;;11849425;28;20062;-63
2021/07/28 19:29:55;;;;;;;4.85;2.40;;;25.40;72.60;;;;;;11852365;28;20042;-63
2021/07/28 19:35:43;;;;;;;5.60;2.00;;;24.90;75.60;;;;;;11873271;28;20418;-63
2021/07/28 19:41:30;;;;;;;5.88;2.10;;;24.50;71.60;;;;;;11848008;28;20133;-63
2021/07/28 19:47:19;;;;;;;6.30;2.35;;;24.20;72.30;;;;;;11872586;28;20061;-63
2021/07/28 19:53:06;;;;;;;5.05;2.03;;;24.00;72.60;;;;;;11833186;28;20458;-64
2021/07/28 19:58:53;;;;;;;8.50;2.55;;;23.80;71.40;;;;;;11829124;28;20046;-63
2021/07/28 20:04:41;;;;;;;3.78;2.03;;;23.70;72.80;;;;;;11796873;28;20059;-63
2021/07/28 20:10:28;;;;;;;2.97;1.80;;;23.40;69.90;;;;;;11832262;28;20054;-62
2021/07/28 20:16:16;;;;;;;4.68;2.17;;;23.20;69.80;;;;;;11834807;28;20046;-64
2021/07/28 20:22:05;;;;;;;8.48;2.05;;;23.40;71.30;;;;;;11836577;28;20049;-67
2021/07/28 20:27:54;;;;;;;3.03;1.80;;;23.40;69.70;;;;;;11845245;28;20050;-67
2021/07/28 20:33:42;;;;;;;4.40;1.88;;;23.40;70.40;;;;;;11846829;28;20054;-65
2021/07/28 20:39:30;;;;;;;4.38;2.08;;;23.40;70.40;;;;;;11817805;28;20039;-67
2021/07/28 20:45:17;;;;;;;4.30;1.90;;;23.20;71.50;;;;;;11802454;28;20182;-67
2021/07/28 20:51:05;;;;;;;4.93;2.33;;;23.20;71.60;;;;;;11843618;28;20514;-67
2021/07/28 20:56:53;;;;;;;7.97;2.65;;;23.10;72.10;;;;;;11819139;28;20031;-67
2021/07/28 21:02:41;;;;;;;4.40;1.65;;;23.10;72.70;;;;;;11841555;28;20050;-67
2021/07/28 21:08:28;;;;;;;4.20;2.00;;;23.00;72.40;;;;;;11823591;28;20533;-67
2021/07/28 21:14:17;;;;;;;5.38;1.77;;;22.90;72.80;;;;;;11817643;28;21234;-67
2021/07/28 21:20:05;;;;;;;5.28;1.83;;;22.80;73.30;;;;;;11804974;28;21797;-67
2021/07/28 21:25:52;;;;;;;4.07;1.80;;;22.70;73.50;;;;;;11812103;28;20411;-67
2021/07/28 21:31:41;;;;;;;5.05;1.95;;;22.70;73.80;;;;;;11845346;28;20426;-67
2021/07/28 21:37:28;;;;;;;2.53;2.00;;;22.60;74.40;;;;;;11815098;28;20062;-67
2021/07/28 21:43:22;;;;;;;8.15;2.47;;;22.60;75.60;;;;;;11817125;28;21029;-67
2021/07/28 21:49:10;;;;;;;5.13;2.10;;;22.60;76.40;;;;;;11840873;28;20108;-67
2021/07/28 21:55:00;;;;;;;11.68;2.92;;;22.60;78.20;;;;;;11839193;28;21438;-67
2021/07/28 22:00:48;;;;;;;6.35;2.13;;;22.50;78.80;;;;;;11833057;28;20058;-67
2021/07/28 22:06:37;;;;;;;5.95;2.25;;;22.40;80.20;;;;;;11831262;28;20105;-67
2021/07/28 22:12:24;;;;;;;7.40;2.53;;;22.20;80.50;;;;;;11855873;28;20054;-67
2021/07/28 22:18:11;;;;;;;9.45;2.30;;;22.20;82.00;;;;;;11849582;28;20423;-67
2021/07/28 22:24:01;;;;;;;9.43;3.08;;;22.20;81.70;;;;;;11853442;28;20462;-67
2021/07/28 22:29:48;;;;;;;8.13;2.95;;;22.10;81.70;;;;;;11850607;28;20065;-67
2021/07/28 22:35:35;;;;;;;11.77;2.40;;;22.00;81.90;;;;;;11854254;28;20081;-67
2021/07/28 22:41:23;;;;;;;8.43;1.92;;;21.90;82.30;;;;;;11847257;28;20050;-67
2021/07/28 22:47:13;;;;;;;6.60;2.50;;;21.80;83.30;;;;;;11833552;28;20062;-67
2021/07/28 22:59:18;;;;;;;6.95;2.25;;;21.70;84.20;;;;;;11833851;28;20077;-65
2021/07/28 23:11:10;;;;;;;6.32;2.05;;;21.40;84.10;;;;;;11855858;28;20141;-66
2021/07/28 23:16:58;;;;;;;10.38;2.67;;;21.40;84.60;;;;;;11826990;28;20051;-66
2021/07/28 23:22:45;;;;;;;2.25;2.00;;;21.40;84.40;;;;;;11863254;28;21447;-66
2021/07/28 23:28:32;;;;;;;4.30;2.40;;;21.40;83.20;;;;;;11840870;28;20426;-66
2021/07/28 23:34:20;;;;;;;7.82;2.30;;;21.30;82.40;;;;;;11861143;28;20454;-66
2021/07/28 23:40:08;;;;;;;2.97;2.10;;;21.30;82.80;;;;;;11835760;28;20046;-66
2021/07/28 23:45:58;;;;;;;4.63;2.13;;;21.10;83.30;;;;;;11849678;28;20042;-65
2021/07/28 23:51:46;;;;;;;6.10;2.35;;;21.20;84.50;;;;;;11849047;28;20070;-66
2021/07/28 23:57:33;;;;;;;4.47;2.28;;;21.10;84.40;;;;;;11795305;28;20061;-66
